Time;durP1;ratioP1;P1;durP2;ratioP2;P2;SDS_P1;SDS_P2;PMS_P1;PMS_P2;Temp;Humidity;BMP_temperature;BMP_pressure;BME280_temperature;BME280_humidity;BME280_pressure;Samples;Min_cycle;Max_cycle;Signal;HPM_P1;HPM_P2
2023/06/22 00:00:08;;;;;;;;;;;;;;;21.78;68.69;101099.59;7396689;19;1274;-54
2023/06/22 00:02:36;;;;;;;;;;;;;;;21.82;68.63;101100.16;7395401;19;1512;-54
2023/06/22 00:05:07;;;;;;;;;;;;;;;22.02;68.06;101095.56;7396444;19;1519;-54
2023/06/22 00:07:36;;;;;;;;;;;;;;;22.02;67.98;101103.63;7395939;19;1590;-54
2023/06/22 00:10:04;;;;;;;;;;;;;;;22.09;67.58;101101.22;7395913;19;1605;-54
2023/06/22 00:12:32;;;;;;;;;;;;;;;22.22;67.12;101093.63;7396395;19;1617;-54
2023/06/22 00:15:00;;;;;;;;;;;;;;;22.10;67.32;101087.59;7395217;19;1160;-55
2023/06/22 00:17:29;;;;;;;;;;;;;;;22.04;67.83;101083.66;7396688;19;1859;-54
2023/06/22 00:19:58;;;;;;;;;;;;;;;22.29;66.84;101086.69;7396503;19;1498;-54
2023/06/22 00:22:30;;;;;;;;;;;;;;;22.05;67.50;101092.59;7395037;19;2052;-55
2023/06/22 00:24:59;;;;;;;;;;;;;;;22.02;67.92;101069.50;7393305;19;1495;-55
2023/06/22 00:27:27;;;;;;;;;;;;;;;22.01;67.52;101077.72;7396134;19;1473;-55
2023/06/22 00:29:55;;;;;;;;;;;;;;;22.11;67.27;101067.75;7395688;19;1631;-54
2023/06/22 00:32:23;;;;;;;;;;;;;;;22.16;66.99;101057.41;7395196;19;1569;-54
2023/06/22 00:34:52;;;;;;;;;;;;;;;22.21;66.98;101065.03;7395381;19;1546;-55
2023/06/22 00:37:22;;;;;;;;;;;;;;;22.15;67.19;101079.91;7395502;19;1279;-55
2023/06/22 00:39:53;;;;;;;;;;;;;;;21.90;68.03;101076.03;7392921;19;1888;-54
2023/06/22 00:42:21;;;;;;;;;;;;;;;21.84;68.01;101082.03;7395262;19;1489;-54
2023/06/22 00:44:50;;;;;;;;;;;;;;;21.77;68.29;101089.84;7395637;19;1550;-54
2023/06/22 00:47:19;;;;;;;;;;;;;;;21.74;68.23;101084.75;7395960;19;1101;-55
2023/06/22 00:49:51;;;;;;;;;;;;;;;21.79;68.35;101070.84;7395173;19;1392;-54
2023/06/22 00:52:20;;;;;;;;;;;;;;;21.85;67.45;101073.81;7395000;19;1808;-55
2023/06/22 00:54:50;;;;;;;;;;;;;;;21.77;67.93;101084.47;7394326;19;1881;-55
2023/06/22 00:57:21;;;;;;;;;;;;;;;21.96;67.17;101080.84;7394478;19;1463;-54
2023/06/22 00:59:50;;;;;;;;;;;;;;;22.17;66.37;101077.94;7394386;19;1845;-54
2023/06/22 01:02:18;;;;;;;;;;;;;;;22.18;66.55;101058.09;7400524;19;1746;-55
2023/06/22 01:04:47;;;;;;;;;;;;;;;22.21;66.21;101068.56;7403483;19;1727;-54
2023/06/22 01:07:23;;;;;;;;;;;;;;;22.28;65.97;101086.84;7403363;19;1864;-54
2023/06/22 01:09:56;;;;;;;;;;;;;;;22.29;65.88;101059.75;7400786;19;1936;-54
2023/06/22 01:12:30;;;;;;;;;;;;;;;22.24;65.87;101065.59;7402114;19;1724;-55
2023/06/22 01:15:00;;;;;;;;;;;;;;;22.13;66.70;101064.91;7401040;19;1905;-54
2023/06/22 01:17:29;;;;;;;;;;;;;;;22.15;66.41;101063.75;7401949;19;1209;-54
2023/06/22 01:19:58;;;;;;;;;;;;;;;22.15;66.37;101066.47;7400053;19;1934;-55
2023/06/22 01:22:28;;;;;;;;;;;;;;;21.94;66.96;101065.84;7401293;19;1721;-54
2023/06/22 01:25:02;;;;;;;;;;;;;;;21.81;67.48;101064.31;7401297;19;1534;-55
2023/06/22 01:27:35;;;;;;;;;;;;;;;21.95;67.10;101073.78;7400500;19;1494;-55
2023/06/22 01:30:10;;;;;;;;;;;;;;;22.10;66.44;101070.59;7401336;19;1235;-55
2023/06/22 01:32:40;;;;;;;;;;;;;;;22.03;66.80;101073.88;7400216;19;1545;-55
2023/06/22 01:35:09;;;;;;;;;;;;;;;21.86;66.79;101074.66;7401092;19;1493;-55
2023/06/22 01:37:39;;;;;;;;;;;;;;;21.70;67.25;101061.81;7400533;19;1712;-55
2023/06/22 01:40:09;;;;;;;;;;;;;;;21.83;66.95;101083.03;7398502;19;1846;-55
2023/06/22 01:42:38;;;;;;;;;;;;;;;21.91;66.37;101088.53;7401203;19;1033;-55
2023/06/22 01:45:09;;;;;;;;;;;;;;;21.90;66.35;101107.50;7401953;19;1027;-55
2023/06/22 01:47:37;;;;;;;;;;;;;;;21.91;66.36;101103.84;7401527;19;1863;-55
2023/06/22 01:50:07;;;;;;;;;;;;;;;22.08;65.96;101099.50;7401588;19;1934;-55
2023/06/22 01:52:36;;;;;;;;;;;;;;;21.79;66.86;101113.94;7400338;19;1475;-55
2023/06/22 01:55:04;;;;;;;;;;;;;;;21.99;66.50;101114.72;7400082;19;1851;-54
2023/06/22 01:57:33;;;;;;;;;;;;;;;22.09;66.02;101095.84;7400508;19;1826;-55
2023/06/22 02:00:02;;;;;;;;;;;;;;;22.13;65.91;101098.09;7399151;19;1896;-55
2023/06/22 02:02:35;;;;;;;;;;;;;;;22.10;65.88;101114.53;7400326;19;1891;-55
2023/06/22 02:05:05;;;;;;;;;;;;;;;22.14;65.62;101115.91;7401538;19;1741;-55
2023/06/22 02:07:36;;;;;;;;;;;;;;;22.11;65.42;101093.84;7402128;19;991;-55
2023/06/22 02:10:05;;;;;;;;;;;;;;;22.10;65.38;101106.44;7399148;19;1927;-55
2023/06/22 02:12:34;;;;;;;;;;;;;;;22.11;65.23;101121.63;7399339;19;1822;-55
2023/06/22 02:15:03;;;;;;;;;;;;;;;22.03;65.29;101116.13;7399498;19;1376;-55
2023/06/22 02:17:35;;;;;;;;;;;;;;;22.22;65.13;101118.75;7400666;19;1161;-52
2023/06/22 02:20:08;;;;;;;;;;;;;;;21.78;66.30;101126.53;7398793;19;1861;-52
2023/06/22 02:22:36;;;;;;;;;;;;;;;21.65;66.76;101131.38;7398850;19;1609;-53
2023/06/22 02:25:05;;;;;;;;;;;;;;;21.59;67.02;101131.97;7398298;19;1955;-52
2023/06/22 02:27:33;;;;;;;;;;;;;;;21.59;67.23;101142.72;7399412;19;1371;-53
2023/06/22 02:30:01;;;;;;;;;;;;;;;21.57;67.01;101139.34;7398611;19;1507;-52
2023/06/22 02:32:29;;;;;;;;;;;;;;;21.90;65.84;101129.06;7398219;19;1249;-53
2023/06/22 02:35:03;;;;;;;;;;;;;;;22.05;65.31;101141.91;7399018;19;1490;-53
2023/06/22 02:37:32;;;;;;;;;;;;;;;22.03;65.11;101125.03;7398986;19;1807;-53
2023/06/22 02:40:00;;;;;;;;;;;;;;;22.08;64.99;101158.75;7396936;19;1849;-52
2023/06/22 02:42:28;;;;;;;;;;;;;;;22.10;64.77;101146.84;7396873;19;1252;-53
2023/06/22 02:44:57;;;;;;;;;;;;;;;21.85;65.50;101148.34;7398946;19;1683;-53
2023/06/22 02:47:25;;;;;;;;;;;;;;;21.59;66.30;101154.34;7399198;19;1196;-53
2023/06/22 02:49:53;;;;;;;;;;;;;;;21.66;66.04;101154.59;7398896;19;1235;-53
2023/06/22 02:52:24;;;;;;;;;;;;;;;21.94;65.21;101154.69;7398364;19;1257;-52
2023/06/22 02:54:52;;;;;;;;;;;;;;;21.80;65.33;101151.44;7396874;19;1551;-53
2023/06/22 02:57:21;;;;;;;;;;;;;;;22.00;65.02;101156.81;7398382;19;1252;-53
2023/06/22 02:59:49;;;;;;;;;;;;;;;21.99;64.52;101157.81;7397366;19;1853;-52
2023/06/22 03:02:20;;;;;;;;;;;;;;;22.05;64.48;101149.97;7398347;19;1196;-53
2023/06/22 03:04:49;;;;;;;;;;;;;;;22.08;64.25;101164.16;7397464;19;1488;-53
2023/06/22 03:07:17;;;;;;;;;;;;;;;21.98;64.69;101162.31;7398855;19;1160;-52
2023/06/22 03:09:48;;;;;;;;;;;;;;;21.96;64.55;101171.56;7398165;19;1692;-52
2023/06/22 03:12:16;;;;;;;;;;;;;;;22.01;64.25;101159.34;7398059;19;1570;-53
2023/06/22 03:14:45;;;;;;;;;;;;;;;21.81;65.49;101168.47;7397313;19;1636;-53
2023/06/22 03:17:13;;;;;;;;;;;;;;;21.56;65.86;101164.53;7399666;19;1122;-52
2023/06/22 03:19:41;;;;;;;;;;;;;;;21.72;65.51;101169.31;7397758;19;1845;-53
2023/06/22 03:22:09;;;;;;;;;;;;;;;21.65;65.66;101179.84;7397044;19;1549;-52
2023/06/22 03:24:39;;;;;;;;;;;;;;;21.72;65.13;101163.94;7397842;19;1582;-53
2023/06/22 03:27:10;;;;;;;;;;;;;;;21.63;65.17;101162.97;7396918;19;1478;-52
2023/06/22 03:29:38;;;;;;;;;;;;;;;21.95;64.83;101164.47;7397516;19;1470;-52
2023/06/22 03:32:07;;;;;;;;;;;;;;;21.81;64.96;101168.47;7397661;19;1553;-52
2023/06/22 03:34:35;;;;;;;;;;;;;;;22.00;64.40;101167.56;7396178;19;1537;-52
2023/06/22 03:37:04;;;;;;;;;;;;;;;21.73;65.42;101171.88;7397030;19;1214;-53
2023/06/22 03:39:32;;;;;;;;;;;;;;;21.81;65.48;101163.94;7395650;19;1867;-52
2023/06/22 03:42:00;;;;;;;;;;;;;;;21.72;65.56;101154.03;7397099;19;1539;-53
2023/06/22 03:44:31;;;;;;;;;;;;;;;21.56;66.24;101135.75;7397717;19;1101;-52
2023/06/22 03:46:59;;;;;;;;;;;;;;;21.60;66.32;101166.78;7396717;19;1901;-53
2023/06/22 03:49:28;;;;;;;;;;;;;;;21.60;66.02;101166.78;7397540;19;1894;-53
2023/06/22 03:51:56;;;;;;;;;;;;;;;21.79;65.71;101168.63;7396414;19;1655;-53
2023/06/22 03:54:24;;;;;;;;;;;;;;;21.93;65.36;101158.41;7394491;19;1066;-53
2023/06/22 03:56:53;;;;;;;;;;;;;;;21.97;65.01;101162.50;7397846;19;1740;-52
2023/06/22 03:59:21;;;;;;;;;;;;;;;22.02;64.75;101160.19;7396896;19;1861;-52
2023/06/22 04:01:52;;;;;;;;;;;;;;;22.00;64.87;101164.88;7396779;19;1704;-53
2023/06/22 04:04:20;;;;;;;;;;;;;;;22.14;64.89;101158.19;7396960;19;1716;-53
2023/06/22 04:06:49;;;;;;;;;;;;;;;22.01;65.31;101159.34;7398414;19;1015;-52
2023/06/22 04:09:17;;;;;;;;;;;;;;;22.01;65.38;101163.91;7395839;19;1929;-52
2023/06/22 04:11:45;;;;;;;;;;;;;;;22.17;65.01;101160.59;7397205;19;1795;-52
2023/06/22 04:14:14;;;;;;;;;;;;;;;22.01;65.67;101158.50;7396179;19;1807;-53
2023/06/22 04:16:42;;;;;;;;;;;;;;;21.87;66.39;101161.66;7397661;19;958;-53
2023/06/22 04:19:16;;;;;;;;;;;;;;;21.93;66.29;101171.84;7394333;19;1859;-53
2023/06/22 04:21:44;;;;;;;;;;;;;;;22.22;65.56;101177.16;7395651;19;1242;-53
2023/06/22 04:24:13;;;;;;;;;;;;;;;22.11;65.85;101172.78;7395710;19;1550;-52
2023/06/22 04:26:41;;;;;;;;;;;;;;;21.95;66.44;101164.47;7395981;19;1189;-52
2023/06/22 04:29:09;;;;;;;;;;;;;;;21.97;66.74;101168.72;7395683;19;1654;-52
2023/06/22 04:31:38;;;;;;;;;;;;;;;22.00;66.58;101167.56;7395803;19;1547;-53
2023/06/22 04:34:08;;;;;;;;;;;;;;;22.04;66.38;101164.47;7395442;19;1557;-52
2023/06/22 04:36:40;;;;;;;;;;;;;;;22.09;66.39;101177.47;7403730;19;1051;-52
2023/06/22 04:39:09;;;;;;;;;;;;;;;22.26;66.28;101188.50;7399013;19;1856;-58
2023/06/22 04:41:41;;;;;;;;;;;;;;;22.40;65.46;101182.63;7400179;19;1459;-55
2023/06/22 04:44:10;;;;;;;;;;;;;;;22.43;65.59;101179.66;7399705;19;1241;-55
2023/06/22 04:46:39;;;;;;;;;;;;;;;22.24;66.46;101186.84;7403510;19;1183;-55
2023/06/22 04:49:09;;;;;;;;;;;;;;;22.35;65.96;101182.25;7402433;19;1526;-55
2023/06/22 04:51:45;;;;;;;;;;;;;;;22.32;65.80;101204.97;6881476;19;9999983;-55
2023/06/22 04:54:13;;;;;;;;;;;;;;;22.37;65.84;101196.44;7391499;19;1477;-55
2023/06/22 04:56:41;;;;;;;;;;;;;;;;;;7395598;19;1591;-55
2023/06/22 04:59:12;;;;;;;;;;;;;;;22.41;66.05;101189.75;7394271;19;1840;-55
2023/06/22 05:01:41;;;;;;;;;;;;;;;22.51;65.87;101190.56;7395586;19;1384;-56
2023/06/22 05:04:09;;;;;;;;;;;;;;;22.53;65.83;101187.72;7396198;19;1560;-55
2023/06/22 05:06:37;;;;;;;;;;;;;;;22.52;66.08;101194.97;7395980;19;1011;-55
2023/06/22 05:09:08;;;;;;;;;;;;;;;22.55;65.80;101186.56;7395465;19;1813;-55
2023/06/22 05:11:37;;;;;;;;;;;;;;;22.43;66.23;101179.66;7396313;19;1676;-55
2023/06/22 05:14:05;;;;;;;;;;;;;;;22.52;66.50;101194.97;7395547;19;1355;-55
2023/06/22 05:16:33;;;;;;;;;;;;;;;22.63;65.98;101175.88;7399926;19;1057;-54
2023/06/22 05:19:03;;;;;;;;;;;;;;;22.70;65.90;101188.75;7400230;19;1846;-53
2023/06/22 05:21:32;;;;;;;;;;;;;;;22.70;65.92;101181.53;7401362;19;1534;-53
2023/06/22 05:24:02;;;;;;;;;;;;;;;22.74;65.66;101195.53;7400497;19;1482;-54
2023/06/22 05:26:33;;;;;;;;;;;;;;;22.74;65.51;101188.31;7400443;19;1561;-53
2023/06/22 05:29:02;;;;;;;;;;;;;;;22.69;65.90;101190.59;7399700;19;1201;-53
2023/06/22 05:31:31;;;;;;;;;;;;;;;22.76;65.53;101196.25;7399559;19;1510;-53
2023/06/22 05:33:59;;;;;;;;;;;;;;;22.74;66.01;101190.16;7400374;19;1103;-53
2023/06/22 05:36:28;;;;;;;;;;;;;;;22.69;65.99;101182.53;7400457;19;1106;-53
2023/06/22 05:38:56;;;;;;;;;;;;;;;22.68;66.03;101185.34;7400165;19;1447;-53
2023/06/22 05:41:24;;;;;;;;;;;;;;;22.69;66.05;101187.91;7397959;19;1847;-54
2023/06/22 05:43:55;;;;;;;;;;;;;;;22.66;66.09;101190.94;7400675;19;1193;-53
2023/06/22 05:46:23;;;;;;;;;;;;;;;22.64;66.13;101187.50;7399286;19;1119;-53
2023/06/22 05:48:52;;;;;;;;;;;;;;;22.66;66.18;101190.06;7394523;19;1855;-53
2023/06/22 05:51:20;;;;;;;;;;;;;;;22.67;66.04;101180.97;7401092;19;1838;-53
2023/06/22 05:53:49;;;;;;;;;;;;;;;22.69;66.02;101179.81;7399288;19;1915;-54
2023/06/22 05:56:18;;;;;;;;;;;;;;;22.71;65.72;101167.03;7397652;19;1720;-53
2023/06/22 05:58:46;;;;;;;;;;;;;;;22.76;65.73;101175.53;7400104;19;1389;-53
2023/06/22 06:01:18;;;;;;;;;;;;;;;22.81;65.64;101180.47;7399459;19;1846;-53
2023/06/22 06:03:46;;;;;;;;;;;;;;;22.84;65.45;101167.53;7399718;19;1464;-54
2023/06/22 06:06:14;;;;;;;;;;;;;;;22.92;65.04;101165.91;7396877;19;1657;-53
2023/06/22 06:08:43;;;;;;;;;;;;;;;22.98;64.97;101165.34;7400691;19;1733;-54
2023/06/22 06:11:11;;;;;;;;;;;;;;;23.08;64.70;101182.34;7400970;19;1933;-53
2023/06/22 06:13:39;;;;;;;;;;;;;;;23.19;64.36;101181.25;7399138;19;1947;-53
2023/06/22 06:16:08;;;;;;;;;;;;;;;23.28;64.03;101169.56;7398032;19;1274;-53
2023/06/22 06:18:39;;;;;;;;;;;;;;;23.23;64.10;101178.09;7398414;19;1575;-53
2023/06/22 06:21:07;;;;;;;;;;;;;;;23.26;64.16;101185.03;7397750;19;1861;-53
2023/06/22 06:23:35;;;;;;;;;;;;;;;23.32;63.77;101170.94;7397737;19;1527;-53
2023/06/22 06:26:07;;;;;;;;;;;;;;;23.21;64.43;101173.84;7397293;19;1581;-53
2023/06/22 06:28:35;;;;;;;;;;;;;;;23.28;64.19;101190.25;7396369;19;1439;-54
2023/06/22 06:31:06;;;;;;;;;;;;;;;23.36;64.13;101172.31;7399413;19;1613;-54
2023/06/22 06:33:35;;;;;;;;;;;;;;;23.56;63.61;101182.97;7398969;19;1295;-55
2023/06/22 06:36:08;;;;;;;;;;;;;;;23.53;63.23;101177.84;7399059;19;950;-54
2023/06/22 06:38:36;;;;;;;;;;;;;;;23.29;65.23;101176.63;7395301;19;1760;-54
2023/06/22 06:41:04;;;;;;;;;;;;;;;23.36;65.08;101172.31;7396076;19;1863;-54
2023/06/22 06:43:33;;;;;;;;;;;;;;;23.32;65.10;101168.25;7396216;19;1840;-54
2023/06/22 06:46:03;;;;;;;;;;;;;;;23.38;64.73;101181.09;7397292;19;1856;-54
2023/06/22 06:48:31;;;;;;;;;;;;;;;23.43;64.86;101183.34;7398375;19;1812;-55
2023/06/22 06:50:59;;;;;;;;;;;;;;;23.49;64.83;101171.06;7397340;19;1740;-54
2023/06/22 06:53:30;;;;;;;;;;;;;;;23.52;65.06;101181.56;7397531;19;1694;-55
2023/06/22 06:55:59;;;;;;;;;;;;;;;23.47;65.20;101162.28;7395639;19;1135;-55
2023/06/22 06:58:28;;;;;;;;;;;;;;;23.46;65.28;101177.66;7396490;19;1058;-54
2023/06/22 07:00:56;;;;;;;;;;;;;;;23.43;65.41;101176.06;7395202;19;1875;-54
2023/06/22 07:03:25;;;;;;;;;;;;;;;23.45;65.58;101185.88;7396753;19;1598;-55
2023/06/22 07:05:54;;;;;;;;;;;;;;;23.48;65.57;101181.03;7396345;19;1565;-54
2023/06/22 07:08:25;;;;;;;;;;;;;;;23.50;65.43;101172.78;7396122;19;1430;-54
2023/06/22 07:10:56;;;;;;;;;;;;;;;23.35;66.03;101181.41;7396538;19;1906;-55
2023/06/22 07:13:24;;;;;;;;;;;;;;;23.53;65.23;101169.75;7396917;19;1537;-54
2023/06/22 07:15:52;;;;;;;;;;;;;;;23.51;65.27;101180.72;7397282;19;1718;-54
2023/06/22 07:18:21;;;;;;;;;;;;;;;23.50;65.55;101180.88;7396463;19;1799;-55
2023/06/22 07:20:49;;;;;;;;;;;;;;;23.54;65.76;101184.97;7395588;19;1841;-54
2023/06/22 07:23:18;;;;;;;;;;;;;;;23.52;65.37;101177.03;7361648;19;13361;-55
2023/06/22 07:25:47;;;;;;;;;;;;;;;23.50;65.48;101175.47;7396605;19;1218;-55
2023/06/22 07:28:19;;;;;;;;;;;;;;;23.51;65.38;101182.56;7394764;19;1806;-55
2023/06/22 07:30:47;;;;;;;;;;;;;;;23.53;65.32;101177.84;7395760;19;1150;-54
2023/06/22 07:33:17;;;;;;;;;;;;;;;23.52;65.60;101182.41;7396680;19;1838;-55
2023/06/22 07:35:46;;;;;;;;;;;;;;;23.46;65.56;101177.66;7396552;19;1521;-54
2023/06/22 07:38:15;;;;;;;;;;;;;;;23.45;65.81;101180.50;7395411;19;1764;-55
2023/06/22 07:40:44;;;;;;;;;;;;;;;23.40;65.95;101178.25;7395821;19;1842;-55
2023/06/22 07:43:12;;;;;;;;;;;;;;;23.38;65.63;101164.91;7395785;19;1821;-54
2023/06/22 07:45:52;;;;;;;;;;;;;;;23.38;65.71;101164.91;7395486;19;1561;-54
2023/06/22 07:48:20;;;;;;;;;;;;;;;23.40;65.66;101173.72;7391633;19;1461;-54
2023/06/22 07:50:49;;;;;;;;;;;;;;;23.38;65.99;101175.72;7396353;19;1795;-55
2023/06/22 07:53:17;;;;;;;;;;;;;;;23.43;65.85;101181.47;7395585;19;1531;-53
2023/06/22 07:55:45;;;;;;;;;;;;;;;23.39;65.69;101155.81;7392411;19;1283;-55
2023/06/22 07:58:15;;;;;;;;;;;;;;;23.40;65.91;101179.09;7395751;19;1407;-54
2023/06/22 08:00:46;;;;;;;;;;;;;;;23.40;65.93;101187.19;7395499;19;1834;-54
2023/06/22 08:03:15;;;;;;;;;;;;;;;23.57;65.22;101190.03;7396391;19;1929;-54
2023/06/22 08:05:43;;;;;;;;;;;;;;;23.75;64.88;101171.94;7393968;19;1454;-55
2023/06/22 08:08:12;;;;;;;;;;;;;;;23.61;65.15;101164.41;7395393;19;2048;-53
2023/06/22 08:10:40;;;;;;;;;;;;;;;23.50;65.51;101181.72;7403735;19;940;-53
2023/06/22 08:13:09;;;;;;;;;;;;;;;23.44;65.56;101176.94;7403463;19;1336;-54
2023/06/22 08:15:37;;;;;;;;;;;;;;;23.38;65.58;101175.72;7402208;19;1417;-54
2023/06/22 08:18:08;;;;;;;;;;;;;;;23.41;65.99;101178.09;7402650;19;1593;-53
2023/06/22 08:20:36;;;;;;;;;;;;;;;23.46;65.60;101176.78;7403178;19;1846;-56
2023/06/22 08:23:06;;;;;;;;;;;;;;;23.45;65.66;101183.19;7402551;19;1749;-53
2023/06/22 08:25:35;;;;;;;;;;;;;;;23.39;65.93;101173.84;7403050;19;1783;-54
2023/06/22 08:28:03;;;;;;;;;;;;;;;23.38;65.55;101169.47;7402028;19;1921;-53
2023/06/22 08:30:31;;;;;;;;;;;;;;;23.41;65.73;101164.59;7402203;19;1406;-54
2023/06/22 08:33:00;;;;;;;;;;;;;;;23.46;65.60;101177.66;7403016;19;1387;-53
2023/06/22 08:35:31;;;;;;;;;;;;;;;23.47;65.72;101178.47;7401039;19;1804;-54
2023/06/22 08:38:01;;;;;;;;;;;;;;;23.52;65.46;101181.56;7401948;19;1760;-53
2023/06/22 08:40:30;;;;;;;;;;;;;;;23.52;65.61;101181.56;7402008;19;1838;-53
2023/06/22 08:42:58;;;;;;;;;;;;;;;23.56;65.65;101172.16;7400537;19;1086;-53
2023/06/22 08:45:27;;;;;;;;;;;;;;;23.54;65.35;101169.63;7403451;19;1090;-53
2023/06/22 08:47:55;;;;;;;;;;;;;;;23.53;65.21;101176.00;7401003;19;1672;-54
2023/06/22 08:50:24;;;;;;;;;;;;;;;23.55;65.37;101170.44;7401116;19;1498;-54
2023/06/22 08:52:55;;;;;;;;;;;;;;;23.51;65.53;101179.88;7400931;19;1271;-54
2023/06/22 08:55:23;;;;;;;;;;;;;;;23.52;65.67;101176.19;7399753;19;1528;-53
2023/06/22 08:57:51;;;;;;;;;;;;;;;23.58;65.31;101176.41;7399746;19;1612;-56
2023/06/22 09:00:20;;;;;;;;;;;;;;;23.70;65.02;101155.41;7399123;19;1854;-54
2023/06/22 09:02:49;;;;;;;;;;;;;;;23.55;65.21;101163.19;7398304;19;1404;-54
2023/06/22 09:05:18;;;;;;;;;;;;;;;23.46;65.40;101166.84;7400317;19;1455;-54
2023/06/22 09:07:46;;;;;;;;;;;;;;;23.41;65.75;101172.69;7401004;19;1110;-53
2023/06/22 09:10:17;;;;;;;;;;;;;;;23.41;65.86;101169.16;7400265;19;1467;-53
2023/06/22 09:12:45;;;;;;;;;;;;;;;23.40;66.00;101165.59;7398741;19;1553;-54
2023/06/22 09:15:14;;;;;;;;;;;;;;;23.39;65.92;101158.50;7400278;19;1473;-54
2023/06/22 09:17:43;;;;;;;;;;;;;;;23.40;65.98;101154.81;7399899;19;1212;-53
2023/06/22 09:20:12;;;;;;;;;;;;;;;23.62;65.36;101166.97;7399600;19;1595;-53
2023/06/22 09:22:41;;;;;;;;;;;;;;;23.54;65.40;101164.22;7397075;19;1847;-54
2023/06/22 09:25:09;;;;;;;;;;;;;;;23.45;65.67;101158.91;7398485;19;1208;-53
2023/06/22 09:27:40;;;;;;;;;;;;;;;23.38;65.81;101154.13;7398920;19;1312;-53
2023/06/22 09:30:10;;;;;;;;;;;;;;;23.38;66.04;101161.38;7399796;19;1303;-54
2023/06/22 09:32:38;;;;;;;;;;;;;;;23.57;65.64;101160.34;7399217;19;1624;-54
2023/06/22 09:35:09;;;;;;;;;;;;;;;23.49;65.67;101162.97;7399520;19;1623;-54
2023/06/22 09:37:38;;;;;;;;;;;;;;;23.51;66.00;101160.97;7399026;19;1216;-54
2023/06/22 09:40:10;;;;;;;;;;;;;;;23.52;65.78;101168.09;7399070;19;1513;-54
2023/06/22 09:42:41;;;;;;;;;;;;;;;23.41;65.76;101159.19;7397613;19;1849;-53
2023/06/22 09:45:09;;;;;;;;;;;;;;;23.37;66.17;101151.56;7399305;19;1150;-54
2023/06/22 09:47:38;;;;;;;;;;;;;;;23.40;66.13;101157.50;7399287;19;1454;-54
2023/06/22 09:50:07;;;;;;;;;;;;;;;23.41;66.14;101153.78;7399018;19;1656;-53
2023/06/22 09:52:36;;;;;;;;;;;;;;;23.43;65.99;101145.53;7397706;19;1799;-53
2023/06/22 09:55:04;;;;;;;;;;;;;;;23.38;66.10;101153.28;7397284;19;1548;-53
2023/06/22 09:57:32;;;;;;;;;;;;;;;23.41;66.03;101143.00;7396874;19;1196;-54
2023/06/22 10:00:05;;;;;;;;;;;;;;;23.45;66.04;101148.94;7398311;19;1221;-53
2023/06/22 10:02:34;;;;;;;;;;;;;;;23.48;66.00;101140.53;7396924;19;1853;-54
2023/06/22 10:05:02;;;;;;;;;;;;;;;23.24;66.89;101146.56;7398158;19;1493;-53
2023/06/22 10:07:30;;;;;;;;;;;;;;;23.33;66.39;101178.00;7398470;19;1473;-53
2023/06/22 10:09:58;;;;;;;;;;;;;;;23.40;66.30;101151.28;7397728;19;1850;-53
2023/06/22 10:12:27;;;;;;;;;;;;;;;23.42;66.19;101143.88;7397661;19;1223;-53
2023/06/22 10:14:55;;;;;;;;;;;;;;;23.49;66.20;101138.69;7398286;19;1223;-53
2023/06/22 10:17:26;;;;;;;;;;;;;;;23.46;66.13;101136.28;7398476;19;1218;-53
2023/06/22 10:19:54;;;;;;;;;;;;;;;23.41;66.05;101134.91;7397098;19;1585;-53
2023/06/22 10:22:23;;;;;;;;;;;;;;;23.41;66.03;101125.97;7395892;19;1854;-54
2023/06/22 10:24:51;;;;;;;;;;;;;;;23.41;66.28;101134.91;7398699;19;1648;-53
2023/06/22 10:27:19;;;;;;;;;;;;;;;23.38;66.15;101137.94;7397215;19;1278;-53
2023/06/22 10:29:48;;;;;;;;;;;;;;;23.32;66.71;101126.91;7398342;19;1573;-54
2023/06/22 10:32:16;;;;;;;;;;;;;;;23.39;66.32;101134.22;7397103;19;1244;-54
2023/06/22 10:34:47;;;;;;;;;;;;;;;23.41;66.16;101132.19;7397675;19;1224;-53
2023/06/22 10:37:15;;;;;;;;;;;;;;;23.39;65.92;101111.78;7397089;19;1337;-53
2023/06/22 10:39:43;;;;;;;;;;;;;;;23.47;66.15;101125.34;7397191;19;1278;-54
2023/06/22 10:42:12;;;;;;;;;;;;;;;23.39;66.15;101112.63;7396528;19;1870;-53
2023/06/22 10:44:41;;;;;;;;;;;;;;;23.47;66.24;101119.09;7398075;19;1124;-53
2023/06/22 10:47:11;;;;;;;;;;;;;;;23.45;66.15;101099.50;7399017;19;1158;-53
2023/06/22 10:49:39;;;;;;;;;;;;;;;23.46;65.95;101112.88;7397734;19;1770;-53
2023/06/22 10:52:11;;;;;;;;;;;;;;;23.37;66.28;101109.22;7397648;19;1355;-54
2023/06/22 10:54:40;;;;;;;;;;;;;;;23.54;66.18;101106.69;7397809;19;1728;-53
2023/06/22 10:57:08;;;;;;;;;;;;;;;23.57;65.94;101100.94;7397615;19;1560;-53
2023/06/22 10:59:36;;;;;;;;;;;;;;;23.45;65.97;101094.13;7394895;19;2251;-53
2023/06/22 11:02:05;;;;;;;;;;;;;;;23.52;66.11;101106.00;7396777;19;1861;-54
2023/06/22 11:04:33;;;;;;;;;;;;;;;23.51;65.87;101115.09;7397611;19;1234;-54
2023/06/22 11:07:02;;;;;;;;;;;;;;;23.53;66.14;101105.81;7396088;19;1170;-53
2023/06/22 11:09:33;;;;;;;;;;;;;;;23.54;66.07;101120.19;7396412;19;1552;-54
2023/06/22 11:12:01;;;;;;;;;;;;;;;23.50;65.96;101108.84;7396366;19;1218;-54
2023/06/22 11:14:29;;;;;;;;;;;;;;;23.51;65.97;101115.91;7397023;19;1302;-53
2023/06/22 11:16:57;;;;;;;;;;;;;;;23.50;66.28;101105.31;7395279;19;2157;-53
2023/06/22 11:19:26;;;;;;;;;;;;;;;23.55;66.21;101111.91;7396513;19;1587;-54
2023/06/22 11:21:54;;;;;;;;;;;;;;;23.50;66.25;101106.16;7396228;19;1858;-54
2023/06/22 11:24:23;;;;;;;;;;;;;;;23.49;66.19;101111.69;7396618;19;1407;-53
2023/06/22 11:26:53;;;;;;;;;;;;;;;23.50;66.53;101102.59;7395879;19;1235;-53
2023/06/22 11:29:22;;;;;;;;;;;;;;;23.62;66.20;101106.75;7393240;19;1157;-54
2023/06/22 11:31:50;;;;;;;;;;;;;;;23.66;65.82;101102.72;7395370;19;1470;-54
2023/06/22 11:34:19;;;;;;;;;;;;;;;23.53;65.94;101113.06;7393457;19;1299;-53
2023/06/22 11:36:48;;;;;;;;;;;;;;;23.50;66.04;101102.59;7395331;19;1269;-54
2023/06/22 11:39:16;;;;;;;;;;;;;;;23.48;66.28;101089.25;7395673;19;1134;-54
2023/06/22 11:41:45;;;;;;;;;;;;;;;23.43;66.42;101103.19;7393953;19;1858;-53
2023/06/22 11:44:16;;;;;;;;;;;;;;;23.46;66.40;101091.28;7394206;19;1538;-54
2023/06/22 11:46:44;;;;;;;;;;;;;;;23.47;66.56;101102.91;7393958;19;1477;-53
2023/06/22 11:49:12;;;;;;;;;;;;;;;23.43;66.38;101097.81;7394704;19;1605;-54
2023/06/22 11:51:40;;;;;;;;;;;;;;;23.43;66.51;101097.81;7395152;19;1488;-53
2023/06/22 11:54:09;;;;;;;;;;;;;;;23.48;66.23;101101.91;7395797;19;1546;-53
2023/06/22 11:56:37;;;;;;;;;;;;;;;23.45;66.63;101099.50;7395377;19;1652;-53
2023/06/22 11:59:05;;;;;;;;;;;;;;;23.45;66.56;101089.56;7395369;19;1526;-53
2023/06/22 12:04:32;;;;;;;;;;;;;;;23.47;66.50;101102.91;7395222;19;1540;-54
2023/06/22 12:07:00;;;;;;;;;;;;;;;23.47;66.61;101094.81;7395910;19;1509;-54
2023/06/22 12:09:29;;;;;;;;;;;;;;;23.44;66.66;101093.28;7394777;19;1553;-53
2023/06/22 12:11:57;;;;;;;;;;;;;;;23.45;66.82;101086.03;7393665;19;1286;-54
2023/06/22 12:14:25;;;;;;;;;;;;;;;23.47;66.46;101081.31;7394913;19;1301;-53
2023/06/22 12:16:54;;;;;;;;;;;;;;;23.48;66.77;101089.25;7395896;19;1158;-53
2023/06/22 12:19:22;;;;;;;;;;;;;;;23.54;66.66;101077.00;7394527;19;1247;-54
2023/06/22 12:21:53;;;;;;;;;;;;;;;23.63;66.02;101071.50;7394324;19;1851;-54
2023/06/22 12:24:21;;;;;;;;;;;;;;;23.70;65.83;101074.38;7394758;19;1599;-54
2023/06/22 12:26:49;;;;;;;;;;;;;;;23.73;66.14;101081.31;7380641;19;1576;-54
2023/06/22 12:29:18;;;;;;;;;;;;;;;23.69;65.78;101075.38;7394269;19;1438;-54
2023/06/22 12:31:46;;;;;;;;;;;;;;;23.70;65.95;101055.50;7394519;19;1460;-53
2023/06/22 12:34:14;;;;;;;;;;;;;;;23.70;65.88;101060.06;7393989;19;1209;-54
2023/06/22 12:36:43;;;;;;;;;;;;;;;23.75;65.69;101069.34;7393836;19;1430;-53
2023/06/22 12:39:13;;;;;;;;;;;;;;;23.46;66.48;101068.81;7394783;19;1043;-53
2023/06/22 12:41:42;;;;;;;;;;;;;;;23.45;66.53;101048.22;7392898;19;1861;-53
2023/06/22 12:44:10;;;;;;;;;;;;;;;23.39;66.95;101049.72;7393372;19;1541;-54
2023/06/22 12:46:39;;;;;;;;;;;;;;;23.36;67.06;101036.53;7392619;19;1513;-53
2023/06/22 12:49:07;;;;;;;;;;;;;;;23.48;66.53;101029.88;7392109;19;1352;-48
2023/06/22 12:51:35;;;;;;;;;;;;;;;23.60;66.19;101049.34;7391443;19;1525;-48
2023/06/22 12:54:04;;;;;;;;;;;;;;;23.68;66.11;101038.59;7391809;19;1403;-48
2023/06/22 12:56:35;;;;;;;;;;;;;;;23.73;66.11;101044.34;7397650;19;1492;-47
2023/06/22 12:59:03;;;;;;;;;;;;;;;23.65;66.14;101038.06;7395707;19;1375;-47